Alamillo, New Mexico
Current Conditions -  °F | °C
As of 4:55 AM on Thursday 23 Oct 2014 (Local Time) from KONM Reporting Station
Clear Clear  
Wind Chill: 49°   Ceiling: Unl
Heat Index: 49°   Visibility: 10mi
Dew Point: 45°   Wind: 3mph
Humidity: 87%   Direction: 260°W
Pressure: 30.19"   Gusts: NA
Location:  34.262°N, 106.87°W
Report Text: KONM 231055Z AUTO 26003KT 10SM CLR 09/07 A3019 RMK AO2 T00920071
Loading
Personal Weather Stations






























Interactive Weather Map
Tropical Storm Tracking
New forecast layout! Learn more

10-Day Weather Forecast

Advertisements
Track Severe Weather on mobile